createdAt,value
2017-08-28T00:01:58.560Z,19.00
2017-08-28T00:04:24.848Z,19.10
2017-08-28T00:06:51.283Z,19.00
2017-08-28T00:09:17.701Z,18.90
2017-08-28T00:11:44.051Z,18.90
2017-08-28T00:14:10.352Z,18.90
2017-08-28T00:16:36.691Z,18.90
2017-08-28T00:19:03.021Z,18.90
2017-08-28T00:21:29.296Z,19.00
2017-08-28T00:23:55.641Z,19.00
2017-08-28T00:26:21.926Z,19.10
2017-08-28T00:28:48.311Z,19.20
2017-08-28T00:31:14.591Z,19.30
2017-08-28T00:33:40.937Z,19.20
2017-08-28T00:36:07.239Z,19.10
2017-08-28T00:38:33.508Z,19.20
2017-08-28T00:40:59.831Z,19.10
2017-08-28T00:43:26.127Z,19.10
2017-08-28T00:45:52.459Z,19.20
2017-08-28T00:48:18.757Z,19.20
2017-08-28T00:50:45.020Z,19.10
2017-08-28T00:53:11.342Z,19.00
2017-08-28T00:55:37.608Z,19.00
2017-08-28T00:58:03.965Z,19.00
2017-08-28T01:00:30.240Z,18.80
2017-08-28T01:02:56.578Z,18.70
2017-08-28T01:05:22.913Z,18.60
2017-08-28T01:07:49.412Z,18.60
2017-08-28T01:10:15.715Z,18.50
2017-08-28T01:12:42.011Z,18.40
2017-08-28T01:15:08.340Z,18.40
2017-08-28T01:17:34.717Z,18.30
2017-08-28T01:20:01.150Z,18.30
2017-08-28T01:22:27.440Z,18.30
2017-08-28T01:24:53.727Z,18.20
2017-08-28T01:27:20.068Z,18.20
2017-08-28T01:29:46.319Z,18.20
2017-08-28T01:32:12.603Z,18.10
2017-08-28T01:34:38.904Z,18.10
2017-08-28T01:37:05.220Z,18.00
2017-08-28T01:39:31.559Z,18.00
2017-08-28T01:41:57.904Z,17.90
2017-08-28T01:44:24.215Z,17.90
2017-08-28T01:46:50.516Z,17.80
2017-08-28T01:49:16.799Z,17.80
2017-08-28T01:51:43.060Z,17.70
2017-08-28T01:54:09.384Z,17.60
2017-08-28T01:56:35.704Z,17.60
2017-08-28T01:59:01.987Z,17.60
2017-08-28T02:01:28.264Z,17.60
2017-08-28T02:03:54.610Z,17.50
2017-08-28T02:06:20.924Z,17.50
2017-08-28T02:08:47.269Z,17.50
2017-08-28T02:11:13.565Z,17.50
2017-08-28T02:13:39.840Z,17.60
2017-08-28T02:16:06.129Z,17.60
2017-08-28T02:18:32.411Z,17.50
2017-08-28T02:20:58.706Z,17.50
2017-08-28T02:23:24.975Z,17.50
2017-08-28T02:25:51.322Z,17.40
2017-08-28T02:28:17.587Z,17.40
2017-08-28T02:30:43.944Z,17.30
2017-08-28T02:33:10.249Z,17.20
2017-08-28T02:35:36.528Z,17.30
2017-08-28T02:38:02.840Z,17.50
2017-08-28T02:40:29.232Z,17.40
2017-08-28T02:42:55.508Z,17.30
2017-08-28T02:45:21.849Z,17.30
2017-08-28T02:47:48.123Z,17.30
2017-08-28T02:50:14.447Z,17.20
2017-08-28T02:52:40.975Z,17.10
2017-08-28T02:55:07.267Z,17.30
2017-08-28T02:57:33.567Z,17.20
2017-08-28T02:59:59.883Z,17.20
2017-08-28T03:02:26.935Z,17.10
2017-08-28T03:04:53.210Z,17.10
2017-08-28T03:07:19.575Z,17.10
2017-08-28T03:09:45.854Z,17.00
2017-08-28T03:12:12.153Z,17.10
2017-08-28T03:14:39.188Z,16.90
2017-08-28T03:17:05.633Z,16.90
2017-08-28T03:19:31.908Z,16.90
2017-08-28T03:21:58.184Z,16.90
2017-08-28T03:24:24.516Z,16.90
2017-08-28T03:26:50.787Z,16.90
2017-08-28T03:29:17.094Z,16.80
2017-08-28T03:31:43.399Z,16.80
2017-08-28T03:34:09.687Z,16.70
2017-08-28T03:36:36.027Z,16.80
2017-08-28T03:39:02.286Z,16.90
2017-08-28T03:41:28.632Z,17.00
2017-08-28T03:43:54.923Z,16.90
2017-08-28T03:46:21.267Z,16.80
2017-08-28T03:48:47.562Z,16.70
2017-08-28T03:51:13.891Z,16.70
2017-08-28T03:53:40.204Z,16.70
2017-08-28T03:56:06.487Z,16.60
2017-08-28T03:58:32.816Z,16.70
2017-08-28T04:00:59.184Z,16.80
2017-08-28T04:03:25.478Z,17.00
2017-08-28T04:05:51.778Z,16.90
2017-08-28T04:08:18.080Z,16.80
2017-08-28T04:10:44.433Z,16.70
2017-08-28T04:13:10.819Z,16.60
2017-08-28T04:15:37.201Z,16.50
2017-08-28T04:18:03.502Z,16.50
2017-08-28T04:20:29.796Z,16.40
2017-08-28T04:22:56.123Z,16.40
2017-08-28T04:25:22.400Z,16.40
2017-08-28T04:27:48.708Z,16.30
2017-08-28T04:30:15.040Z,16.30
2017-08-28T04:32:41.383Z,16.40
2017-08-28T04:35:07.668Z,16.30
2017-08-28T04:37:33.947Z,16.40
2017-08-28T04:40:00.240Z,16.50
2017-08-28T04:42:26.576Z,16.70
2017-08-28T04:44:52.887Z,16.70
2017-08-28T04:47:19.373Z,16.80
2017-08-28T04:49:45.710Z,16.80
2017-08-28T04:52:11.976Z,16.80
2017-08-28T04:54:38.252Z,16.90
2017-08-28T04:57:04.572Z,17.00
2017-08-28T04:59:30.860Z,17.10
2017-08-28T05:01:57.140Z,17.20
2017-08-28T05:04:23.464Z,17.30
2017-08-28T05:06:49.763Z,17.40
2017-08-28T05:09:16.144Z,17.50
2017-08-28T05:11:42.413Z,17.70
2017-08-28T05:14:08.732Z,17.80
2017-08-28T05:16:35.036Z,17.80
2017-08-28T05:19:01.337Z,17.90
2017-08-28T05:21:27.666Z,18.00
2017-08-28T05:23:53.967Z,18.20
2017-08-28T05:26:20.276Z,18.30
2017-08-28T05:28:46.561Z,18.50
2017-08-28T05:31:12.890Z,18.60
2017-08-28T05:33:39.179Z,18.80
2017-08-28T05:36:05.472Z,19.30
2017-08-28T05:38:31.756Z,20.10
2017-08-28T05:40:58.064Z,20.90
2017-08-28T05:43:24.384Z,21.80
2017-08-28T05:45:50.659Z,22.60
2017-08-28T05:48:16.987Z,23.30
2017-08-28T05:50:43.999Z,24.30
2017-08-28T05:53:10.256Z,24.20
2017-08-28T05:55:37.352Z,23.10
2017-08-28T05:58:03.635Z,23.00
2017-08-28T06:00:29.952Z,22.40
2017-08-28T06:02:56.295Z,21.90
2017-08-28T06:05:22.564Z,21.50
2017-08-28T06:07:48.872Z,21.30
2017-08-28T06:10:15.180Z,21.00
2017-08-28T06:12:41.496Z,20.70
2017-08-28T06:15:07.879Z,20.60
2017-08-28T06:17:34.199Z,21.10
2017-08-28T06:20:00.647Z,21.90
2017-08-28T06:22:26.976Z,23.00
2017-08-28T06:24:53.268Z,24.30
2017-08-28T06:27:19.547Z,25.80
2017-08-28T06:29:45.904Z,27.30
2017-08-28T06:32:12.205Z,28.60
2017-08-28T06:34:38.504Z,29.60
2017-08-28T06:37:04.823Z,30.70
2017-08-28T06:39:31.142Z,31.60
2017-08-28T06:41:57.610Z,32.20
2017-08-28T06:44:23.899Z,33.10
2017-08-28T06:46:50.168Z,33.80
2017-08-28T06:49:16.501Z,34.30
2017-08-28T06:51:42.852Z,35.00
2017-08-28T06:54:09.171Z,35.30
2017-08-28T06:56:35.481Z,35.60
2017-08-28T06:59:01.763Z,36.20
2017-08-28T07:01:28.096Z,36.80
2017-08-28T07:03:54.425Z,37.10
2017-08-28T07:06:20.732Z,37.60
2017-08-28T07:08:47.169Z,38.30
2017-08-28T07:11:13.501Z,38.70
2017-08-28T07:13:39.816Z,39.30
2017-08-28T07:16:06.090Z,39.80
2017-08-28T07:18:32.383Z,39.90
2017-08-28T07:20:58.678Z,40.30
2017-08-28T07:23:24.980Z,40.30
2017-08-28T07:25:51.315Z,40.10
2017-08-28T07:28:17.588Z,40.00
2017-08-28T07:30:43.931Z,40.30
2017-08-28T07:33:10.219Z,40.20
2017-08-28T07:35:36.530Z,40.50
2017-08-28T07:38:02.824Z,41.00
2017-08-28T07:40:29.124Z,41.10
2017-08-28T07:42:55.452Z,41.20
2017-08-28T07:45:21.773Z,41.80
2017-08-28T07:47:48.084Z,41.50
2017-08-28T07:50:14.356Z,41.00
2017-08-28T07:52:40.699Z,41.50
2017-08-28T07:55:07.020Z,42.30
2017-08-28T07:57:33.351Z,43.10
2017-08-28T07:59:59.652Z,43.80
2017-08-28T08:02:26.096Z,44.50
2017-08-28T08:04:52.443Z,45.00
2017-08-28T08:07:18.859Z,44.90
2017-08-28T08:09:45.169Z,45.10
2017-08-28T08:12:11.481Z,45.30
2017-08-28T08:14:37.790Z,46.00
2017-08-28T08:17:04.092Z,46.10
2017-08-28T08:19:30.367Z,46.50
2017-08-28T08:21:57.020Z,46.90
2017-08-28T08:24:23.471Z,47.20
2017-08-28T08:26:49.775Z,47.20
2017-08-28T08:29:16.091Z,47.20
2017-08-28T08:31:42.397Z,47.40
2017-08-28T08:34:14.707Z,47.70
2017-08-28T08:36:41.036Z,47.70
2017-08-28T08:39:07.371Z,47.90
2017-08-28T08:41:33.732Z,48.20
2017-08-28T08:44:00.049Z,48.50
2017-08-28T08:46:26.346Z,48.30
2017-08-28T08:48:52.671Z,48.50
2017-08-28T08:51:18.964Z,48.50
2017-08-28T08:53:45.287Z,48.50
2017-08-28T08:56:11.582Z,48.30
2017-08-28T08:58:37.887Z,48.30
2017-08-28T09:01:04.164Z,48.50
2017-08-28T09:03:30.459Z,48.40
2017-08-28T09:05:56.911Z,48.50
2017-08-28T09:08:23.192Z,48.30
2017-08-28T09:10:49.541Z,48.30
2017-08-28T09:13:15.859Z,48.20
2017-08-28T09:15:42.151Z,47.80
2017-08-28T09:18:08.452Z,47.40
2017-08-28T09:20:34.721Z,47.20
2017-08-28T09:23:01.215Z,47.30
2017-08-28T09:25:27.631Z,46.90
2017-08-28T09:27:53.884Z,46.90
2017-08-28T09:30:20.225Z,46.40
2017-08-28T09:32:46.540Z,45.90
2017-08-28T09:35:12.892Z,45.70
2017-08-28T09:37:39.295Z,45.20
2017-08-28T09:40:05.601Z,44.50
2017-08-28T09:42:31.892Z,43.80
2017-08-28T09:44:58.167Z,43.40
2017-08-28T09:47:24.471Z,42.70
2017-08-28T09:49:50.776Z,42.10
2017-08-28T09:52:17.110Z,40.70
2017-08-28T09:54:43.435Z,38.80
2017-08-28T09:57:09.763Z,36.80
2017-08-28T09:59:36.052Z,35.30
2017-08-28T10:02:02.377Z,33.90
2017-08-28T10:04:28.868Z,32.50
2017-08-28T10:06:55.468Z,31.50
2017-08-28T10:09:21.828Z,30.80
2017-08-28T10:11:48.111Z,30.00
2017-08-28T10:14:14.408Z,29.30
2017-08-28T10:16:40.719Z,28.90
2017-08-28T10:19:07.047Z,28.50
2017-08-28T10:21:33.344Z,28.30
2017-08-28T10:23:59.683Z,28.20
2017-08-28T10:26:26.759Z,28.00
2017-08-28T10:28:53.087Z,27.90
2017-08-28T10:31:19.380Z,27.90
2017-08-28T10:33:45.721Z,27.70
2017-08-28T10:36:12.007Z,27.70
2017-08-28T10:38:38.354Z,27.70
2017-08-28T10:41:04.639Z,27.50
2017-08-28T10:43:30.928Z,27.30
2017-08-28T10:45:57.265Z,27.30
2017-08-28T10:48:23.556Z,27.30
2017-08-28T10:50:49.869Z,27.30
2017-08-28T10:53:16.181Z,27.20
2017-08-28T10:55:42.550Z,27.10
2017-08-28T10:58:08.886Z,27.00
2017-08-28T11:00:35.239Z,27.00
2017-08-28T11:03:01.523Z,26.90
2017-08-28T11:05:27.843Z,26.80
2017-08-28T11:07:54.182Z,26.70
2017-08-28T11:10:20.481Z,26.70
2017-08-28T11:12:46.804Z,26.80
2017-08-28T11:15:13.081Z,26.90
2017-08-28T11:17:39.369Z,26.90
2017-08-28T11:20:05.679Z,27.00
2017-08-28T11:22:31.948Z,27.00
2017-08-28T11:24:58.295Z,27.00
2017-08-28T11:27:24.767Z,27.20
2017-08-28T11:29:51.083Z,27.10
2017-08-28T11:32:17.396Z,27.10
2017-08-28T11:34:43.748Z,27.10
2017-08-28T11:37:10.060Z,27.10
2017-08-28T11:39:36.390Z,27.00
2017-08-28T11:42:02.717Z,27.00
2017-08-28T11:44:28.987Z,27.00
2017-08-28T11:46:55.609Z,26.90
2017-08-28T11:49:21.905Z,26.90
2017-08-28T11:51:48.188Z,26.90
2017-08-28T11:54:14.488Z,26.90
2017-08-28T11:56:40.787Z,27.00
2017-08-28T11:59:07.083Z,27.00
2017-08-28T12:01:34.099Z,27.20
2017-08-28T12:04:00.405Z,27.10
2017-08-28T12:06:26.724Z,27.10
2017-08-28T12:08:53.315Z,27.00
2017-08-28T12:11:19.620Z,26.90
2017-08-28T12:13:45.924Z,26.80
2017-08-28T12:16:12.235Z,26.60
2017-08-28T12:18:38.527Z,26.60
2017-08-28T12:21:04.812Z,26.70
2017-08-28T12:23:31.196Z,26.70
2017-08-28T12:25:57.512Z,26.90
2017-08-28T12:28:23.827Z,27.00
2017-08-28T12:30:50.178Z,27.00
2017-08-28T12:33:16.475Z,27.00
2017-08-28T12:35:42.924Z,27.00
2017-08-28T12:38:09.287Z,27.00
2017-08-28T12:40:35.607Z,27.10
2017-08-28T12:43:01.903Z,27.10
2017-08-28T12:45:28.232Z,27.10
2017-08-28T12:47:54.560Z,27.10
2017-08-28T12:50:20.900Z,27.00
2017-08-28T12:52:47.400Z,26.90
2017-08-28T12:55:13.754Z,26.90
2017-08-28T12:57:40.028Z,26.70
2017-08-28T13:00:07.116Z,26.60
2017-08-28T13:02:34.268Z,26.50
2017-08-28T13:05:00.597Z,26.70
2017-08-28T13:07:26.913Z,26.60
2017-08-28T13:09:53.220Z,26.60
2017-08-28T13:12:19.539Z,26.60
2017-08-28T13:14:45.900Z,26.70
2017-08-28T13:17:12.286Z,26.80
2017-08-28T13:19:38.615Z,26.80
2017-08-28T13:22:04.947Z,26.90
2017-08-28T13:24:31.280Z,26.90
2017-08-28T13:26:57.591Z,26.80
2017-08-28T13:29:23.899Z,26.80
2017-08-28T13:31:50.176Z,26.90
2017-08-28T13:34:16.501Z,26.80
2017-08-28T13:36:42.815Z,26.60
2017-08-28T13:39:09.157Z,26.60
2017-08-28T13:41:35.466Z,26.70
2017-08-28T13:44:01.760Z,26.60
2017-08-28T13:46:28.096Z,26.80
2017-08-28T13:48:54.400Z,26.80
2017-08-28T13:51:20.688Z,26.80
2017-08-28T13:53:47.014Z,26.80
2017-08-28T13:56:13.285Z,26.80
2017-08-28T13:58:39.628Z,26.90
2017-08-28T14:01:05.944Z,26.80
2017-08-28T14:03:32.308Z,26.80
2017-08-28T14:05:58.640Z,26.90
2017-08-28T14:08:24.967Z,26.90
2017-08-28T14:10:51.297Z,26.90
2017-08-28T14:13:17.605Z,27.00
2017-08-28T14:15:43.948Z,27.00
2017-08-28T14:18:10.272Z,27.10
2017-08-28T14:20:36.558Z,27.10
2017-08-28T14:23:02.977Z,27.10
2017-08-28T14:25:29.461Z,27.00
2017-08-28T14:27:55.779Z,27.00
2017-08-28T14:30:22.076Z,27.00
2017-08-28T14:32:48.387Z,26.90
2017-08-28T14:35:14.671Z,26.90
2017-08-28T14:37:40.957Z,26.90
2017-08-28T14:40:07.505Z,26.80
2017-08-28T14:42:33.814Z,26.80
2017-08-28T14:45:00.136Z,26.80
2017-08-28T14:47:26.420Z,26.80
2017-08-28T14:49:52.736Z,26.80
2017-08-28T14:52:19.038Z,26.70
2017-08-28T14:54:45.348Z,26.70
2017-08-28T14:57:11.670Z,26.70
2017-08-28T14:59:37.949Z,26.70
2017-08-28T15:02:04.228Z,26.70
2017-08-28T15:04:30.602Z,26.70
2017-08-28T15:06:56.947Z,26.70
2017-08-28T15:09:23.233Z,26.70
2017-08-28T15:11:49.501Z,26.70
2017-08-28T15:14:15.831Z,26.70
2017-08-28T15:16:42.117Z,26.80
2017-08-28T15:19:08.437Z,26.80
2017-08-28T15:21:34.968Z,26.80
2017-08-28T15:24:01.329Z,26.80
2017-08-28T15:26:27.795Z,26.80
2017-08-28T15:28:54.120Z,26.80
2017-08-28T15:31:20.428Z,26.80
2017-08-28T15:33:46.719Z,26.80
2017-08-28T15:36:13.056Z,26.70
2017-08-28T15:38:39.442Z,26.70
2017-08-28T15:41:05.771Z,26.60
2017-08-28T15:43:32.048Z,26.60
2017-08-28T15:45:58.372Z,26.60
2017-08-28T15:48:24.709Z,26.50
2017-08-28T15:50:51.045Z,26.50
2017-08-28T15:53:17.324Z,26.50
2017-08-28T15:55:43.599Z,26.60
2017-08-28T15:58:09.927Z,26.50
2017-08-28T16:00:36.208Z,26.40
2017-08-28T16:03:02.514Z,26.30
2017-08-28T16:05:28.834Z,26.30
2017-08-28T16:07:55.348Z,26.20
2017-08-28T16:10:21.696Z,26.20
2017-08-28T16:12:48.016Z,26.20
2017-08-28T16:15:14.324Z,26.10
2017-08-28T16:17:40.588Z,26.10
2017-08-28T16:20:06.904Z,26.00
2017-08-28T16:22:33.208Z,26.00
2017-08-28T16:24:59.576Z,25.90
2017-08-28T16:27:25.913Z,25.90
2017-08-28T16:29:52.224Z,25.90
2017-08-28T16:32:18.500Z,25.90
2017-08-28T16:34:44.888Z,25.80
2017-08-28T16:37:11.176Z,25.80
2017-08-28T16:39:37.709Z,25.80
2017-08-28T16:42:04.001Z,25.80
2017-08-28T16:44:30.393Z,25.70
2017-08-28T16:46:56.804Z,25.60
2017-08-28T16:49:24.064Z,25.70
2017-08-28T16:51:50.358Z,25.70
2017-08-28T16:54:16.691Z,25.70
2017-08-28T16:56:42.968Z,25.50
2017-08-28T16:59:09.276Z,25.50
2017-08-28T17:01:35.596Z,25.50
2017-08-28T17:04:01.953Z,25.40
2017-08-28T17:06:28.271Z,25.40
2017-08-28T17:08:54.616Z,25.30
2017-08-28T17:11:20.936Z,25.20
2017-08-28T17:13:47.367Z,25.20
2017-08-28T17:16:13.662Z,25.10
2017-08-28T17:18:40.118Z,25.20
2017-08-28T17:21:06.427Z,25.20
2017-08-28T17:23:38.917Z,25.10
2017-08-28T17:26:05.231Z,25.00
2017-08-28T17:28:31.545Z,25.00
2017-08-28T17:30:57.877Z,24.90
2017-08-28T17:33:24.176Z,24.80
2017-08-28T17:35:50.521Z,24.90
2017-08-28T17:38:16.809Z,24.90
2017-08-28T17:40:43.088Z,24.80
2017-08-28T17:43:09.392Z,24.70
2017-08-28T17:45:35.688Z,24.60
2017-08-28T17:48:02.022Z,24.50
2017-08-28T17:50:28.384Z,24.30
2017-08-28T17:52:54.776Z,24.20
2017-08-28T17:55:21.077Z,24.10
2017-08-28T17:57:47.436Z,24.00
2017-08-28T18:00:13.775Z,24.00
2017-08-28T18:02:40.120Z,24.10
2017-08-28T18:05:06.435Z,24.20
2017-08-28T18:07:33.193Z,24.10
2017-08-28T18:09:59.533Z,24.10
2017-08-28T18:12:25.867Z,24.00
2017-08-28T18:14:52.145Z,24.10
2017-08-28T18:17:18.484Z,24.10
2017-08-28T18:19:44.786Z,24.00
2017-08-28T18:22:11.175Z,23.90
2017-08-28T18:24:37.512Z,23.80
2017-08-28T18:27:03.876Z,23.70
2017-08-28T18:29:30.218Z,23.60
2017-08-28T18:31:56.554Z,23.40
2017-08-28T18:34:22.881Z,23.30
2017-08-28T18:36:49.239Z,23.10
2017-08-28T18:39:15.715Z,23.20
2017-08-28T18:41:42.002Z,23.30
2017-08-28T18:44:08.311Z,23.30
2017-08-28T18:46:34.672Z,23.10
2017-08-28T18:49:00.984Z,23.10
2017-08-28T18:51:27.312Z,23.10
2017-08-28T18:53:53.849Z,23.00
2017-08-28T18:56:20.164Z,23.00
2017-08-28T18:58:46.469Z,23.10
2017-08-28T19:01:12.780Z,23.00
2017-08-28T19:03:39.133Z,23.00
2017-08-28T19:06:05.464Z,23.00
2017-08-28T19:08:31.879Z,23.10
2017-08-28T19:10:58.273Z,23.10
2017-08-28T19:13:24.593Z,23.20
2017-08-28T19:15:51.065Z,23.10
2017-08-28T19:18:17.377Z,23.00
2017-08-28T19:20:43.737Z,22.80
2017-08-28T19:23:10.053Z,22.70
2017-08-28T19:25:36.375Z,22.50
2017-08-28T19:28:02.696Z,22.40
2017-08-28T19:30:28.989Z,22.30
2017-08-28T19:32:55.327Z,22.20
2017-08-28T19:35:23.681Z,22.00
2017-08-28T19:37:49.991Z,21.90
2017-08-28T19:40:16.307Z,21.80
2017-08-28T19:42:42.644Z,21.70
2017-08-28T19:45:08.961Z,21.60
2017-08-28T19:47:35.279Z,21.60
2017-08-28T19:50:01.589Z,21.60
2017-08-28T19:52:27.897Z,21.60
2017-08-28T19:54:54.220Z,21.50
2017-08-28T19:57:20.563Z,21.40
2017-08-28T19:59:47.033Z,21.40
2017-08-28T20:02:14.163Z,21.20
2017-08-28T20:04:40.484Z,21.20
2017-08-28T20:07:07.021Z,21.20
2017-08-28T20:09:33.336Z,21.20
2017-08-28T20:11:59.791Z,21.10
2017-08-28T20:14:26.344Z,21.10
2017-08-28T20:16:52.700Z,21.10
2017-08-28T20:19:19.033Z,21.00
2017-08-28T20:21:45.357Z,21.00
2017-08-28T20:24:11.698Z,21.00
2017-08-28T20:26:38.048Z,20.90
2017-08-28T20:29:04.398Z,20.90
2017-08-28T20:31:30.700Z,20.80
2017-08-28T20:33:57.220Z,20.70
2017-08-28T20:36:23.726Z,20.60
2017-08-28T20:38:50.015Z,20.60
2017-08-28T20:41:16.346Z,20.60
2017-08-28T20:43:42.667Z,20.60
2017-08-28T20:46:09.032Z,20.60
2017-08-28T20:48:35.365Z,20.60
2017-08-28T20:51:01.705Z,20.50
2017-08-28T20:53:28.104Z,20.40
2017-08-28T20:55:54.365Z,20.40
2017-08-28T20:58:20.703Z,20.30
2017-08-28T21:00:47.000Z,20.20
2017-08-28T21:03:13.361Z,20.10
2017-08-28T21:05:39.652Z,20.00
2017-08-28T21:08:06.126Z,19.90
2017-08-28T21:10:32.438Z,19.90
2017-08-28T21:12:58.849Z,19.90
2017-08-28T21:15:25.224Z,19.80
2017-08-28T21:17:51.564Z,19.80
2017-08-28T21:20:17.856Z,19.80
2017-08-28T21:22:44.190Z,19.70
2017-08-28T21:25:10.561Z,19.70
2017-08-28T21:27:36.939Z,19.60
2017-08-28T21:30:03.272Z,19.60
2017-08-28T21:32:29.600Z,19.60
2017-08-28T21:34:55.922Z,19.50
2017-08-28T21:37:22.228Z,19.50
2017-08-28T21:42:21.756Z,19.30
2017-08-28T21:44:48.108Z,19.30
2017-08-28T21:47:14.501Z,19.30
2017-08-28T21:49:40.852Z,19.30
2017-08-28T21:52:07.390Z,19.30
2017-08-28T21:54:33.685Z,19.30
2017-08-28T21:57:00.002Z,19.30
2017-08-28T21:59:26.299Z,19.30
2017-08-28T22:01:52.620Z,19.20
2017-08-28T22:04:19.000Z,19.20
2017-08-28T22:06:45.341Z,19.20
2017-08-28T22:09:11.850Z,19.10
2017-08-28T22:11:38.180Z,19.10
2017-08-28T22:14:04.461Z,19.20
2017-08-28T22:16:30.772Z,19.20
2017-08-28T22:18:57.074Z,19.30
2017-08-28T22:21:24.301Z,19.40
2017-08-28T22:23:50.580Z,19.30
2017-08-28T22:26:16.904Z,19.20
2017-08-28T22:28:43.221Z,19.10
2017-08-28T22:31:09.544Z,19.10
2017-08-28T22:33:35.911Z,19.20
2017-08-28T22:36:02.192Z,19.10
2017-08-28T22:38:28.500Z,19.00
2017-08-28T22:40:54.828Z,18.90
2017-08-28T22:43:21.153Z,18.90
2017-08-28T22:45:47.461Z,18.90
2017-08-28T22:48:13.772Z,18.80
2017-08-28T22:50:40.124Z,18.70
2017-08-28T22:53:06.436Z,18.70
2017-08-28T22:55:32.729Z,18.70
2017-08-28T22:57:59.098Z,18.60
2017-08-28T23:00:25.471Z,18.70
2017-08-28T23:02:51.714Z,18.60
2017-08-28T23:05:18.110Z,18.60
2017-08-28T23:07:44.448Z,18.60
2017-08-28T23:10:10.820Z,18.50
2017-08-28T23:12:37.152Z,18.50
2017-08-28T23:15:04.204Z,18.40
2017-08-28T23:17:30.524Z,18.40
2017-08-28T23:19:56.860Z,18.40
2017-08-28T23:22:23.282Z,18.50
2017-08-28T23:24:49.754Z,18.50
2017-08-28T23:27:16.092Z,18.40
2017-08-28T23:29:42.437Z,18.30
2017-08-28T23:32:08.756Z,18.30
2017-08-28T23:34:35.057Z,18.30
2017-08-28T23:37:01.365Z,18.20
2017-08-28T23:39:27.704Z,18.20
2017-08-28T23:41:54.036Z,18.20
2017-08-28T23:44:20.328Z,18.20
2017-08-28T23:46:46.612Z,18.10
2017-08-28T23:49:12.923Z,18.10
2017-08-28T23:51:39.248Z,18.10
2017-08-28T23:54:05.547Z,18.10
2017-08-28T23:56:31.843Z,18.20
2017-08-28T23:58:58.159Z,18.40
